sensor_id;sensor_type;location;lat;lon;timestamp;P1;durP1;ratioP1;P2;durP2;ratioP2
7919;SDS011;18778;47.610;9.776;2023-06-24T00:02:14;6.90;;;6.13;;
7919;SDS011;18778;47.610;9.776;2023-06-24T00:04:40;6.63;;;6.03;;
7919;SDS011;18778;47.610;9.776;2023-06-24T00:07:06;6.47;;;5.87;;
7919;SDS011;18778;47.610;9.776;2023-06-24T00:09:32;7.47;;;6.63;;
7919;SDS011;18778;47.610;9.776;2023-06-24T00:11:58;7.63;;;6.43;;
7919;SDS011;18778;47.610;9.776;2023-06-24T00:14:24;6.60;;;6.00;;
7919;SDS011;18778;47.610;9.776;2023-06-24T00:16:51;8.00;;;6.50;;
7919;SDS011;18778;47.610;9.776;2023-06-24T00:19:21;7.27;;;6.57;;
7919;SDS011;18778;47.610;9.776;2023-06-24T00:21:49;7.03;;;6.23;;
7919;SDS011;18778;47.610;9.776;2023-06-24T00:24:18;7.87;;;6.63;;
7919;SDS011;18778;47.610;9.776;2023-06-24T00:26:47;7.13;;;6.47;;
7919;SDS011;18778;47.610;9.776;2023-06-24T00:29:13;6.83;;;6.23;;
7919;SDS011;18778;47.610;9.776;2023-06-24T00:31:40;6.40;;;5.80;;
7919;SDS011;18778;47.610;9.776;2023-06-24T00:34:06;7.07;;;6.30;;
7919;SDS011;18778;47.610;9.776;2023-06-24T00:36:32;7.30;;;6.60;;
7919;SDS011;18778;47.610;9.776;2023-06-24T00:39:00;6.57;;;5.97;;
7919;SDS011;18778;47.610;9.776;2023-06-24T00:41:28;7.17;;;6.47;;
7919;SDS011;18778;47.610;9.776;2023-06-24T00:43:54;6.90;;;6.20;;
7919;SDS011;18778;47.610;9.776;2023-06-24T00:46:22;7.13;;;6.43;;
7919;SDS011;18778;47.610;9.776;2023-06-24T00:51:39;7.07;;;6.30;;
7919;SDS011;18778;47.610;9.776;2023-06-24T00:54:12;7.47;;;6.50;;
7919;SDS011;18778;47.610;9.776;2023-06-24T00:56:37;6.57;;;5.93;;
7919;SDS011;18778;47.610;9.776;2023-06-24T00:59:03;8.37;;;6.47;;
7919;SDS011;18778;47.610;9.776;2023-06-24T01:01:32;7.50;;;6.17;;
7919;SDS011;18778;47.610;9.776;2023-06-24T01:03:59;6.87;;;6.17;;
7919;SDS011;18778;47.610;9.776;2023-06-24T01:06:26;7.27;;;6.60;;
7919;SDS011;18778;47.610;9.776;2023-06-24T01:08:59;7.00;;;6.30;;
7919;SDS011;18778;47.610;9.776;2023-06-24T01:11:27;7.20;;;6.50;;
7919;SDS011;18778;47.610;9.776;2023-06-24T01:13:53;7.73;;;6.47;;
7919;SDS011;18778;47.610;9.776;2023-06-24T01:16:26;9.43;;;6.70;;
7919;SDS011;18778;47.610;9.776;2023-06-24T01:33:49;8.17;;;7.30;;
7919;SDS011;18778;47.610;9.776;2023-06-24T01:36:21;7.77;;;6.73;;
7919;SDS011;18778;47.610;9.776;2023-06-24T01:38:51;7.33;;;6.33;;
7919;SDS011;18778;47.610;9.776;2023-06-24T01:41:22;7.97;;;7.13;;
7919;SDS011;18778;47.610;9.776;2023-06-24T01:43:52;7.50;;;6.70;;
7919;SDS011;18778;47.610;9.776;2023-06-24T01:46:21;7.33;;;6.60;;
7919;SDS011;18778;47.610;9.776;2023-06-24T01:48:48;8.77;;;7.27;;
7919;SDS011;18778;47.610;9.776;2023-06-24T01:51:18;7.40;;;6.60;;
7919;SDS011;18778;47.610;9.776;2023-06-24T01:53:48;7.97;;;6.77;;
7919;SDS011;18778;47.610;9.776;2023-06-24T01:56:19;9.77;;;7.10;;
7919;SDS011;18778;47.610;9.776;2023-06-24T01:58:48;7.53;;;6.80;;
7919;SDS011;18778;47.610;9.776;2023-06-24T02:01:17;7.77;;;6.50;;
7919;SDS011;18778;47.610;9.776;2023-06-24T02:03:43;7.27;;;6.57;;
7919;SDS011;18778;47.610;9.776;2023-06-24T02:06:09;7.03;;;6.33;;
7919;SDS011;18778;47.610;9.776;2023-06-24T02:08:37;6.83;;;6.17;;
7919;SDS011;18778;47.610;9.776;2023-06-24T02:11:05;7.03;;;6.43;;
7919;SDS011;18778;47.610;9.776;2023-06-24T02:13:32;8.57;;;6.80;;
7919;SDS011;18778;47.610;9.776;2023-06-24T02:16:02;7.50;;;6.70;;
7919;SDS011;18778;47.610;9.776;2023-06-24T02:18:31;7.67;;;6.97;;
7919;SDS011;18778;47.610;9.776;2023-06-24T02:21:00;7.93;;;6.27;;
7919;SDS011;18778;47.610;9.776;2023-06-24T02:23:26;6.83;;;5.90;;
7919;SDS011;18778;47.610;9.776;2023-06-24T02:25:53;6.53;;;5.93;;
7919;SDS011;18778;47.610;9.776;2023-06-24T02:28:20;7.20;;;6.60;;
7919;SDS011;18778;47.610;9.776;2023-06-24T02:30:46;7.00;;;6.40;;
7919;SDS011;18778;47.610;9.776;2023-06-24T02:33:13;7.17;;;6.47;;
7919;SDS011;18778;47.610;9.776;2023-06-24T02:35:39;7.23;;;6.53;;
7919;SDS011;18778;47.610;9.776;2023-06-24T02:38:06;9.40;;;6.37;;
7919;SDS011;18778;47.610;9.776;2023-06-24T02:40:32;7.20;;;6.50;;
7919;SDS011;18778;47.610;9.776;2023-06-24T02:43:00;9.13;;;6.53;;
7919;SDS011;18778;47.610;9.776;2023-06-24T02:45:26;6.70;;;6.10;;
7919;SDS011;18778;47.610;9.776;2023-06-24T02:47:52;8.10;;;6.60;;
7919;SDS011;18778;47.610;9.776;2023-06-24T02:50:19;7.13;;;6.43;;
7919;SDS011;18778;47.610;9.776;2023-06-24T02:52:46;6.83;;;6.13;;
7919;SDS011;18778;47.610;9.776;2023-06-24T02:55:12;7.23;;;6.53;;
7919;SDS011;18778;47.610;9.776;2023-06-24T02:57:40;7.13;;;6.50;;
7919;SDS011;18778;47.610;9.776;2023-06-24T03:00:07;9.77;;;6.10;;
7919;SDS011;18778;47.610;9.776;2023-06-24T03:02:40;8.17;;;6.67;;
7919;SDS011;18778;47.610;9.776;2023-06-24T03:05:07;7.10;;;6.40;;
7919;SDS011;18778;47.610;9.776;2023-06-24T03:07:34;7.97;;;6.07;;
7919;SDS011;18778;47.610;9.776;2023-06-24T03:10:02;8.27;;;6.73;;
7919;SDS011;18778;47.610;9.776;2023-06-24T03:12:28;6.80;;;6.10;;
7919;SDS011;18778;47.610;9.776;2023-06-24T03:14:54;7.63;;;6.40;;
7919;SDS011;18778;47.610;9.776;2023-06-24T03:17:20;8.33;;;6.37;;
7919;SDS011;18778;47.610;9.776;2023-06-24T03:19:45;8.60;;;6.53;;
7919;SDS011;18778;47.610;9.776;2023-06-24T03:22:11;7.70;;;6.87;;
7919;SDS011;18778;47.610;9.776;2023-06-24T03:24:37;7.70;;;6.90;;
7919;SDS011;18778;47.610;9.776;2023-06-24T03:27:03;7.80;;;6.97;;
7919;SDS011;18778;47.610;9.776;2023-06-24T03:29:29;6.97;;;6.30;;
7919;SDS011;18778;47.610;9.776;2023-06-24T03:31:55;9.03;;;6.33;;
7919;SDS011;18778;47.610;9.776;2023-06-24T03:34:21;8.43;;;6.83;;
7919;SDS011;18778;47.610;9.776;2023-06-24T03:36:47;7.33;;;6.30;;
7919;SDS011;18778;47.610;9.776;2023-06-24T03:39:12;7.60;;;6.80;;
7919;SDS011;18778;47.610;9.776;2023-06-24T03:41:38;7.70;;;6.83;;
7919;SDS011;18778;47.610;9.776;2023-06-24T03:44:04;7.13;;;6.43;;
7919;SDS011;18778;47.610;9.776;2023-06-24T03:46:29;7.80;;;6.00;;
7919;SDS011;18778;47.610;9.776;2023-06-24T03:48:57;7.10;;;6.40;;
7919;SDS011;18778;47.610;9.776;2023-06-24T03:51:23;7.33;;;6.63;;
7919;SDS011;18778;47.610;9.776;2023-06-24T03:53:49;10.83;;;7.00;;
7919;SDS011;18778;47.610;9.776;2023-06-24T03:56:16;6.80;;;6.20;;
7919;SDS011;18778;47.610;9.776;2023-06-24T03:58:43;7.93;;;7.13;;
7919;SDS011;18778;47.610;9.776;2023-06-24T04:01:09;7.10;;;6.40;;
7919;SDS011;18778;47.610;9.776;2023-06-24T04:03:35;7.73;;;6.47;;
7919;SDS011;18778;47.610;9.776;2023-06-24T04:06:00;8.83;;;6.93;;
7919;SDS011;18778;47.610;9.776;2023-06-24T04:08:29;7.10;;;6.37;;
7919;SDS011;18778;47.610;9.776;2023-06-24T04:10:55;6.70;;;6.10;;
7919;SDS011;18778;47.610;9.776;2023-06-24T04:13:33;7.60;;;6.47;;
7919;SDS011;18778;47.610;9.776;2023-06-24T04:15:59;7.10;;;6.33;;
7919;SDS011;18778;47.610;9.776;2023-06-24T04:18:24;6.40;;;5.80;;
7919;SDS011;18778;47.610;9.776;2023-06-24T04:20:50;7.23;;;5.70;;
7919;SDS011;18778;47.610;9.776;2023-06-24T04:23:16;6.83;;;6.23;;
7919;SDS011;18778;47.610;9.776;2023-06-24T04:25:42;6.67;;;6.03;;
7919;SDS011;18778;47.610;9.776;2023-06-24T04:28:08;7.03;;;6.33;;
7919;SDS011;18778;47.610;9.776;2023-06-24T04:30:34;9.13;;;6.97;;
7919;SDS011;18778;47.610;9.776;2023-06-24T04:33:00;7.30;;;6.53;;
7919;SDS011;18778;47.610;9.776;2023-06-24T04:35:26;7.07;;;6.37;;
7919;SDS011;18778;47.610;9.776;2023-06-24T04:37:52;13.90;;;6.90;;
7919;SDS011;18778;47.610;9.776;2023-06-24T04:40:18;6.90;;;6.20;;
7919;SDS011;18778;47.610;9.776;2023-06-24T04:42:47;6.97;;;6.30;;
7919;SDS011;18778;47.610;9.776;2023-06-24T04:45:13;7.63;;;6.50;;
7919;SDS011;18778;47.610;9.776;2023-06-24T04:47:39;7.73;;;6.10;;
7919;SDS011;18778;47.610;9.776;2023-06-24T04:50:04;7.37;;;6.23;;
7919;SDS011;18778;47.610;9.776;2023-06-24T04:52:30;7.50;;;5.93;;
7919;SDS011;18778;47.610;9.776;2023-06-24T04:54:56;7.27;;;6.00;;
7919;SDS011;18778;47.610;9.776;2023-06-24T04:57:23;6.63;;;5.73;;
7919;SDS011;18778;47.610;9.776;2023-06-24T04:59:52;5.93;;;5.43;;
7919;SDS011;18778;47.610;9.776;2023-06-24T05:02:18;5.63;;;5.13;;
7919;SDS011;18778;47.610;9.776;2023-06-24T05:04:43;6.60;;;5.90;;
7919;SDS011;18778;47.610;9.776;2023-06-24T05:07:09;5.73;;;5.23;;
7919;SDS011;18778;47.610;9.776;2023-06-24T05:09:34;6.10;;;5.50;;
7919;SDS011;18778;47.610;9.776;2023-06-24T05:12:03;6.57;;;5.50;;
7919;SDS011;18778;47.610;9.776;2023-06-24T05:14:29;7.57;;;5.83;;
7919;SDS011;18778;47.610;9.776;2023-06-24T05:16:55;5.50;;;5.00;;
7919;SDS011;18778;47.610;9.776;2023-06-24T05:19:20;5.47;;;4.97;;
7919;SDS011;18778;47.610;9.776;2023-06-24T05:21:46;5.83;;;5.33;;
7919;SDS011;18778;47.610;9.776;2023-06-24T05:24:11;6.23;;;5.20;;
7919;SDS011;18778;47.610;9.776;2023-06-24T05:26:37;5.37;;;4.50;;
7919;SDS011;18778;47.610;9.776;2023-06-24T05:29:03;5.10;;;4.70;;
7919;SDS011;18778;47.610;9.776;2023-06-24T05:31:28;6.60;;;4.90;;
7919;SDS011;18778;47.610;9.776;2023-06-24T05:33:54;7.20;;;5.80;;
7919;SDS011;18778;47.610;9.776;2023-06-24T05:36:19;9.43;;;7.00;;
7919;SDS011;18778;47.610;9.776;2023-06-24T05:38:45;13.33;;;9.03;;
7919;SDS011;18778;47.610;9.776;2023-06-24T05:41:10;10.70;;;9.70;;
7919;SDS011;18778;47.610;9.776;2023-06-24T05:43:36;12.00;;;10.70;;
7919;SDS011;18778;47.610;9.776;2023-06-24T05:46:02;13.33;;;12.03;;
7919;SDS011;18778;47.610;9.776;2023-06-24T05:48:28;14.80;;;12.03;;
7919;SDS011;18778;47.610;9.776;2023-06-24T05:50:53;10.23;;;9.23;;
7919;SDS011;18778;47.610;9.776;2023-06-24T05:53:19;9.83;;;8.33;;
7919;SDS011;18778;47.610;9.776;2023-06-24T05:55:44;9.50;;;8.50;;
7919;SDS011;18778;47.610;9.776;2023-06-24T05:58:10;8.63;;;7.73;;
7919;SDS011;18778;47.610;9.776;2023-06-24T06:00:36;6.93;;;6.23;;
7919;SDS011;18778;47.610;9.776;2023-06-24T06:03:02;6.63;;;5.90;;
7919;SDS011;18778;47.610;9.776;2023-06-24T06:05:28;7.43;;;6.10;;
7919;SDS011;18778;47.610;9.776;2023-06-24T06:07:53;7.63;;;6.90;;
7919;SDS011;18778;47.610;9.776;2023-06-24T06:10:19;8.23;;;6.93;;
7919;SDS011;18778;47.610;9.776;2023-06-24T06:12:46;5.60;;;5.10;;
7919;SDS011;18778;47.610;9.776;2023-06-24T06:15:11;6.00;;;5.47;;
7919;SDS011;18778;47.610;9.776;2023-06-24T06:17:37;5.90;;;5.33;;
7919;SDS011;18778;47.610;9.776;2023-06-24T06:20:03;4.97;;;4.53;;
7919;SDS011;18778;47.610;9.776;2023-06-24T06:22:29;4.00;;;3.70;;
7919;SDS011;18778;47.610;9.776;2023-06-24T06:24:57;4.00;;;3.60;;
7919;SDS011;18778;47.610;9.776;2023-06-24T06:27:22;3.60;;;3.30;;
7919;SDS011;18778;47.610;9.776;2023-06-24T06:29:48;3.70;;;3.40;;
7919;SDS011;18778;47.610;9.776;2023-06-24T06:32:13;3.57;;;3.27;;
7919;SDS011;18778;47.610;9.776;2023-06-24T06:34:39;3.80;;;3.50;;
7919;SDS011;18778;47.610;9.776;2023-06-24T06:37:05;3.27;;;2.97;;
7919;SDS011;18778;47.610;9.776;2023-06-24T06:39:30;4.37;;;3.97;;
7919;SDS011;18778;47.610;9.776;2023-06-24T06:41:56;6.20;;;3.50;;
7919;SDS011;18778;47.610;9.776;2023-06-24T06:44:22;3.73;;;3.40;;
7919;SDS011;18778;47.610;9.776;2023-06-24T06:46:47;3.60;;;3.30;;
7919;SDS011;18778;47.610;9.776;2023-06-24T06:49:13;3.40;;;3.20;;
7919;SDS011;18778;47.610;9.776;2023-06-24T06:51:38;4.20;;;3.20;;
7919;SDS011;18778;47.610;9.776;2023-06-24T06:54:04;3.53;;;3.33;;
7919;SDS011;18778;47.610;9.776;2023-06-24T06:56:29;4.17;;;3.27;;
7919;SDS011;18778;47.610;9.776;2023-06-24T06:58:55;4.23;;;3.83;;
7919;SDS011;18778;47.610;9.776;2023-06-24T07:01:21;3.03;;;2.83;;
7919;SDS011;18778;47.610;9.776;2023-06-24T07:03:48;3.23;;;3.03;;
7919;SDS011;18778;47.610;9.776;2023-06-24T07:06:14;3.43;;;3.23;;
7919;SDS011;18778;47.610;9.776;2023-06-24T07:08:42;3.47;;;3.17;;
7919;SDS011;18778;47.610;9.776;2023-06-24T07:11:08;3.93;;;3.50;;
7919;SDS011;18778;47.610;9.776;2023-06-24T07:13:33;4.30;;;3.10;;
7919;SDS011;18778;47.610;9.776;2023-06-24T07:15:59;5.27;;;3.37;;
7919;SDS011;18778;47.610;9.776;2023-06-24T07:18:24;3.73;;;3.40;;
7919;SDS011;18778;47.610;9.776;2023-06-24T07:20:52;3.60;;;3.30;;
7919;SDS011;18778;47.610;9.776;2023-06-24T07:23:18;4.93;;;3.90;;
7919;SDS011;18778;47.610;9.776;2023-06-24T07:25:44;4.53;;;3.40;;
7919;SDS011;18778;47.610;9.776;2023-06-24T07:28:09;4.07;;;3.67;;
7919;SDS011;18778;47.610;9.776;2023-06-24T07:30:35;4.47;;;4.07;;
7919;SDS011;18778;47.610;9.776;2023-06-24T07:33:00;4.93;;;3.57;;
7919;SDS011;18778;47.610;9.776;2023-06-24T07:35:30;3.93;;;3.63;;
7919;SDS011;18778;47.610;9.776;2023-06-24T07:37:59;3.87;;;3.57;;
7919;SDS011;18778;47.610;9.776;2023-06-24T07:40:25;3.40;;;3.20;;
7919;SDS011;18778;47.610;9.776;2023-06-24T07:42:51;3.27;;;3.07;;
7919;SDS011;18778;47.610;9.776;2023-06-24T07:45:17;3.47;;;3.27;;
7919;SDS011;18778;47.610;9.776;2023-06-24T07:47:42;3.60;;;3.30;;
7919;SDS011;18778;47.610;9.776;2023-06-24T07:50:08;3.37;;;3.17;;
7919;SDS011;18778;47.610;9.776;2023-06-24T07:52:35;3.57;;;3.27;;
7919;SDS011;18778;47.610;9.776;2023-06-24T07:55:02;3.53;;;3.30;;
7919;SDS011;18778;47.610;9.776;2023-06-24T07:57:28;4.10;;;3.70;;
7919;SDS011;18778;47.610;9.776;2023-06-24T07:59:54;3.80;;;3.50;;
7919;SDS011;18778;47.610;9.776;2023-06-24T08:02:20;3.47;;;3.17;;
7919;SDS011;18778;47.610;9.776;2023-06-24T08:04:45;3.47;;;3.27;;
7919;SDS011;18778;47.610;9.776;2023-06-24T08:07:11;3.50;;;3.20;;
7919;SDS011;18778;47.610;9.776;2023-06-24T08:09:37;3.40;;;3.20;;
7919;SDS011;18778;47.610;9.776;2023-06-24T08:12:03;3.40;;;3.10;;
7919;SDS011;18778;47.610;9.776;2023-06-24T08:14:29;3.30;;;3.10;;
7919;SDS011;18778;47.610;9.776;2023-06-24T08:16:54;3.13;;;2.93;;
7919;SDS011;18778;47.610;9.776;2023-06-24T08:19:20;3.37;;;3.07;;
7919;SDS011;18778;47.610;9.776;2023-06-24T08:21:45;4.47;;;3.00;;
7919;SDS011;18778;47.610;9.776;2023-06-24T08:24:11;3.33;;;2.83;;
7919;SDS011;18778;47.610;9.776;2023-06-24T08:26:36;3.67;;;3.37;;
7919;SDS011;18778;47.610;9.776;2023-06-24T08:29:02;3.63;;;2.97;;
7919;SDS011;18778;47.610;9.776;2023-06-24T08:31:28;3.47;;;3.17;;
7919;SDS011;18778;47.610;9.776;2023-06-24T08:33:54;3.40;;;3.10;;
7919;SDS011;18778;47.610;9.776;2023-06-24T08:36:23;4.33;;;2.60;;
7919;SDS011;18778;47.610;9.776;2023-06-24T08:38:51;3.17;;;2.97;;
7919;SDS011;18778;47.610;9.776;2023-06-24T08:41:17;3.60;;;3.30;;
7919;SDS011;18778;47.610;9.776;2023-06-24T08:43:43;3.00;;;2.80;;
7919;SDS011;18778;47.610;9.776;2023-06-24T08:46:08;3.50;;;2.87;;
7919;SDS011;18778;47.610;9.776;2023-06-24T08:48:34;3.07;;;2.87;;
7919;SDS011;18778;47.610;9.776;2023-06-24T08:51:05;3.17;;;2.97;;
7919;SDS011;18778;47.610;9.776;2023-06-24T08:53:34;4.03;;;3.03;;
7919;SDS011;18778;47.610;9.776;2023-06-24T08:56:02;4.27;;;2.70;;
7919;SDS011;18778;47.610;9.776;2023-06-24T08:58:28;3.30;;;3.10;;
7919;SDS011;18778;47.610;9.776;2023-06-24T09:00:53;3.37;;;2.80;;
7919;SDS011;18778;47.610;9.776;2023-06-24T09:03:19;3.40;;;3.10;;
7919;SDS011;18778;47.610;9.776;2023-06-24T09:05:45;3.00;;;2.80;;
7919;SDS011;18778;47.610;9.776;2023-06-24T09:08:10;3.23;;;3.03;;
7919;SDS011;18778;47.610;9.776;2023-06-24T09:10:36;3.30;;;3.00;;
7919;SDS011;18778;47.610;9.776;2023-06-24T09:13:03;5.20;;;2.67;;
7919;SDS011;18778;47.610;9.776;2023-06-24T09:15:33;4.33;;;2.70;;
7919;SDS011;18778;47.610;9.776;2023-06-24T09:18:00;3.30;;;3.03;;
7919;SDS011;18778;47.610;9.776;2023-06-24T09:20:29;3.60;;;3.30;;
7919;SDS011;18778;47.610;9.776;2023-06-24T09:23:03;3.33;;;2.60;;
7919;SDS011;18778;47.610;9.776;2023-06-24T09:25:29;3.27;;;2.90;;
7919;SDS011;18778;47.610;9.776;2023-06-24T09:27:59;3.53;;;3.13;;
7919;SDS011;18778;47.610;9.776;2023-06-24T09:30:26;3.07;;;2.87;;
7919;SDS011;18778;47.610;9.776;2023-06-24T09:32:52;3.33;;;2.90;;
7919;SDS011;18778;47.610;9.776;2023-06-24T09:35:18;4.20;;;3.20;;
7919;SDS011;18778;47.610;9.776;2023-06-24T09:37:52;3.33;;;3.03;;
7919;SDS011;18778;47.610;9.776;2023-06-24T09:40:19;3.13;;;2.90;;
7919;SDS011;18778;47.610;9.776;2023-06-24T09:42:53;3.37;;;3.07;;
7919;SDS011;18778;47.610;9.776;2023-06-24T09:45:22;3.23;;;3.00;;
7919;SDS011;18778;47.610;9.776;2023-06-24T09:47:52;3.93;;;3.17;;
7919;SDS011;18778;47.610;9.776;2023-06-24T09:50:18;4.43;;;2.97;;
7919;SDS011;18778;47.610;9.776;2023-06-24T09:52:45;3.37;;;3.10;;
7919;SDS011;18778;47.610;9.776;2023-06-24T09:55:14;3.30;;;3.00;;
7919;SDS011;18778;47.610;9.776;2023-06-24T09:57:44;3.30;;;3.10;;
7919;SDS011;18778;47.610;9.776;2023-06-24T10:00:11;2.90;;;2.70;;
7919;SDS011;18778;47.610;9.776;2023-06-24T10:02:41;3.37;;;3.07;;
7919;SDS011;18778;47.610;9.776;2023-06-24T10:05:07;3.67;;;3.10;;
7919;SDS011;18778;47.610;9.776;2023-06-24T10:07:34;3.60;;;3.30;;
7919;SDS011;18778;47.610;9.776;2023-06-24T10:10:01;3.53;;;3.23;;
7919;SDS011;18778;47.610;9.776;2023-06-24T10:12:28;3.73;;;3.43;;
7919;SDS011;18778;47.610;9.776;2023-06-24T10:14:56;3.10;;;2.90;;
7919;SDS011;18778;47.610;9.776;2023-06-24T10:17:22;3.43;;;3.20;;
7919;SDS011;18778;47.610;9.776;2023-06-24T10:19:51;3.70;;;3.40;;
7919;SDS011;18778;47.610;9.776;2023-06-24T10:22:18;3.33;;;3.03;;
7919;SDS011;18778;47.610;9.776;2023-06-24T10:24:51;3.53;;;3.07;;
7919;SDS011;18778;47.610;9.776;2023-06-24T10:27:18;3.70;;;3.40;;
7919;SDS011;18778;47.610;9.776;2023-06-24T10:29:49;3.70;;;3.17;;
7919;SDS011;18778;47.610;9.776;2023-06-24T10:32:17;4.70;;;3.67;;
7919;SDS011;18778;47.610;9.776;2023-06-24T10:34:44;4.80;;;3.57;;
7919;SDS011;18778;47.610;9.776;2023-06-24T10:37:20;3.10;;;2.90;;
7919;SDS011;18778;47.610;9.776;2023-06-24T10:44:56;3.47;;;2.87;;
7919;SDS011;18778;47.610;9.776;2023-06-24T10:47:23;3.43;;;3.13;;
7919;SDS011;18778;47.610;9.776;2023-06-24T10:49:49;3.10;;;2.90;;
7919;SDS011;18778;47.610;9.776;2023-06-24T10:52:18;3.57;;;3.23;;
7919;SDS011;18778;47.610;9.776;2023-06-24T10:54:46;3.80;;;3.50;;
7919;SDS011;18778;47.610;9.776;2023-06-24T10:57:11;3.53;;;3.03;;
7919;SDS011;18778;47.610;9.776;2023-06-24T10:59:41;3.47;;;3.17;;
7919;SDS011;18778;47.610;9.776;2023-06-24T11:02:07;3.30;;;3.00;;
7919;SDS011;18778;47.610;9.776;2023-06-24T11:04:43;3.40;;;3.10;;
7919;SDS011;18778;47.610;9.776;2023-06-24T11:07:12;3.60;;;3.30;;
7919;SDS011;18778;47.610;9.776;2023-06-24T11:09:40;2.93;;;2.73;;
7919;SDS011;18778;47.610;9.776;2023-06-24T11:12:10;3.20;;;3.00;;
7919;SDS011;18778;47.610;9.776;2023-06-24T11:14:37;3.63;;;3.00;;
7919;SDS011;18778;47.610;9.776;2023-06-24T11:17:03;3.30;;;2.77;;
7919;SDS011;18778;47.610;9.776;2023-06-24T11:22:55;3.27;;;3.07;;
7919;SDS011;18778;47.610;9.776;2023-06-24T11:25:21;3.23;;;3.03;;
7919;SDS011;18778;47.610;9.776;2023-06-24T11:27:47;3.93;;;3.00;;
7919;SDS011;18778;47.610;9.776;2023-06-24T11:30:17;3.17;;;2.87;;
7919;SDS011;18778;47.610;9.776;2023-06-24T11:32:43;3.00;;;2.80;;
7919;SDS011;18778;47.610;9.776;2023-06-24T11:35:11;3.63;;;3.00;;
7919;SDS011;18778;47.610;9.776;2023-06-24T11:37:46;3.00;;;2.77;;
7919;SDS011;18778;47.610;9.776;2023-06-24T11:40:13;3.60;;;3.30;;
7919;SDS011;18778;47.610;9.776;2023-06-24T11:42:43;3.20;;;3.00;;
7919;SDS011;18778;47.610;9.776;2023-06-24T11:45:10;3.40;;;3.10;;
7919;SDS011;18778;47.610;9.776;2023-06-24T11:47:38;3.50;;;3.20;;
7919;SDS011;18778;47.610;9.776;2023-06-24T11:50:05;3.70;;;3.03;;
7919;SDS011;18778;47.610;9.776;2023-06-24T11:55:00;3.83;;;2.90;;
7919;SDS011;18778;47.610;9.776;2023-06-24T12:00:28;2.90;;;2.70;;
7919;SDS011;18778;47.610;9.776;2023-06-24T12:03:00;3.40;;;3.10;;
7919;SDS011;18778;47.610;9.776;2023-06-24T12:08:03;3.23;;;3.03;;
7919;SDS011;18778;47.610;9.776;2023-06-24T12:10:31;4.13;;;3.40;;
7919;SDS011;18778;47.610;9.776;2023-06-24T12:12:58;3.30;;;3.10;;
7919;SDS011;18778;47.610;9.776;2023-06-24T12:15:24;3.13;;;2.77;;
7919;SDS011;18778;47.610;9.776;2023-06-24T12:17:50;3.47;;;3.17;;
7919;SDS011;18778;47.610;9.776;2023-06-24T12:20:16;3.07;;;2.87;;
7919;SDS011;18778;47.610;9.776;2023-06-24T12:22:43;3.20;;;3.00;;
7919;SDS011;18778;47.610;9.776;2023-06-24T12:25:09;3.53;;;2.70;;
7919;SDS011;18778;47.610;9.776;2023-06-24T12:27:35;3.67;;;3.00;;
7919;SDS011;18778;47.610;9.776;2023-06-24T12:30:01;3.43;;;3.13;;
7919;SDS011;18778;47.610;9.776;2023-06-24T12:32:27;3.40;;;3.10;;
7919;SDS011;18778;47.610;9.776;2023-06-24T12:34:53;3.30;;;3.00;;
7919;SDS011;18778;47.610;9.776;2023-06-24T12:37:18;3.13;;;2.87;;
7919;SDS011;18778;47.610;9.776;2023-06-24T12:39:44;3.47;;;3.17;;
7919;SDS011;18778;47.610;9.776;2023-06-24T12:42:10;3.50;;;3.20;;
7919;SDS011;18778;47.610;9.776;2023-06-24T12:44:36;3.37;;;3.07;;
7919;SDS011;18778;47.610;9.776;2023-06-24T12:47:02;3.90;;;3.60;;
7919;SDS011;18778;47.610;9.776;2023-06-24T12:49:28;3.67;;;3.23;;
7919;SDS011;18778;47.610;9.776;2023-06-24T12:51:53;3.17;;;2.87;;
7919;SDS011;18778;47.610;9.776;2023-06-24T12:54:19;3.83;;;3.00;;
7919;SDS011;18778;47.610;9.776;2023-06-24T12:56:44;3.40;;;3.10;;
7919;SDS011;18778;47.610;9.776;2023-06-24T12:59:10;3.00;;;2.80;;
7919;SDS011;18778;47.610;9.776;2023-06-24T13:01:35;3.20;;;2.90;;
7919;SDS011;18778;47.610;9.776;2023-06-24T13:04:01;3.30;;;3.00;;
7919;SDS011;18778;47.610;9.776;2023-06-24T13:06:27;4.83;;;3.23;;
7919;SDS011;18778;47.610;9.776;2023-06-24T13:08:52;5.15;;;3.35;;
7919;SDS011;18778;47.610;9.776;2023-06-24T13:11:18;3.35;;;3.05;;
7919;SDS011;18778;47.610;9.776;2023-06-24T13:13:44;4.38;;;3.00;;
7919;SDS011;18778;47.610;9.776;2023-06-24T13:16:09;3.30;;;3.10;;
7919;SDS011;18778;47.610;9.776;2023-06-24T13:18:35;3.15;;;2.85;;
7919;SDS011;18778;47.610;9.776;2023-06-24T13:21:01;3.70;;;3.00;;
7919;SDS011;18778;47.610;9.776;2023-06-24T13:23:26;3.23;;;3.03;;
7919;SDS011;18778;47.610;9.776;2023-06-24T13:25:52;3.30;;;2.97;;
7919;SDS011;18778;47.610;9.776;2023-06-24T13:28:18;3.20;;;3.00;;
7919;SDS011;18778;47.610;9.776;2023-06-24T13:30:43;3.45;;;3.25;;
7919;SDS011;18778;47.610;9.776;2023-06-24T13:33:09;5.60;;;3.40;;
7919;SDS011;18778;47.610;9.776;2023-06-24T13:35:35;3.70;;;3.40;;
7919;SDS011;18778;47.610;9.776;2023-06-24T13:38:01;3.40;;;3.10;;
7919;SDS011;18778;47.610;9.776;2023-06-24T13:40:26;3.63;;;2.90;;
7919;SDS011;18778;47.610;9.776;2023-06-24T13:42:52;3.70;;;3.37;;
7919;SDS011;18778;47.610;9.776;2023-06-24T13:45:17;3.72;;;3.40;;
7919;SDS011;18778;47.610;9.776;2023-06-24T13:47:43;3.60;;;3.00;;
7919;SDS011;18778;47.610;9.776;2023-06-24T13:50:09;4.20;;;3.40;;
7919;SDS011;18778;47.610;9.776;2023-06-24T13:52:35;4.63;;;3.13;;
7919;SDS011;18778;47.610;9.776;2023-06-24T13:55:00;3.33;;;3.10;;
7919;SDS011;18778;47.610;9.776;2023-06-24T13:57:26;3.72;;;3.42;;
7919;SDS011;18778;47.610;9.776;2023-06-24T13:59:52;5.38;;;3.47;;
7919;SDS011;18778;47.610;9.776;2023-06-24T14:02:18;3.03;;;2.83;;
7919;SDS011;18778;47.610;9.776;2023-06-24T14:04:44;5.18;;;3.10;;
7919;SDS011;18778;47.610;9.776;2023-06-24T14:07:10;3.50;;;3.20;;
7919;SDS011;18778;47.610;9.776;2023-06-24T14:09:37;3.33;;;3.03;;
7919;SDS011;18778;47.610;9.776;2023-06-24T14:12:04;3.28;;;2.78;;
7919;SDS011;18778;47.610;9.776;2023-06-24T14:14:30;3.42;;;3.22;;
7919;SDS011;18778;47.610;9.776;2023-06-24T14:16:55;4.82;;;2.85;;
7919;SDS011;18778;47.610;9.776;2023-06-24T14:19:21;3.47;;;2.60;;
7919;SDS011;18778;47.610;9.776;2023-06-24T14:21:47;2.85;;;2.65;;
7919;SDS011;18778;47.610;9.776;2023-06-24T14:24:13;2.90;;;2.70;;
7919;SDS011;18778;47.610;9.776;2023-06-24T14:26:38;3.78;;;2.75;;
7919;SDS011;18778;47.610;9.776;2023-06-24T14:29:04;2.88;;;2.67;;
7919;SDS011;18778;47.610;9.776;2023-06-24T14:31:30;3.40;;;2.95;;
7919;SDS011;18778;47.610;9.776;2023-06-24T14:33:55;2.90;;;2.70;;
7919;SDS011;18778;47.610;9.776;2023-06-24T14:36:21;3.20;;;2.42;;
7919;SDS011;18778;47.610;9.776;2023-06-24T14:38:47;3.67;;;2.78;;
7919;SDS011;18778;47.610;9.776;2023-06-24T14:41:13;3.10;;;2.78;;
7919;SDS011;18778;47.610;9.776;2023-06-24T14:43:38;3.45;;;3.15;;
7919;SDS011;18778;47.610;9.776;2023-06-24T14:46:04;3.00;;;2.80;;
7919;SDS011;18778;47.610;9.776;2023-06-24T14:48:30;3.05;;;2.72;;
7919;SDS011;18778;47.610;9.776;2023-06-24T14:50:55;2.65;;;2.55;;
7919;SDS011;18778;47.610;9.776;2023-06-24T14:53:21;2.85;;;2.65;;
7919;SDS011;18778;47.610;9.776;2023-06-24T14:55:47;3.00;;;2.70;;
7919;SDS011;18778;47.610;9.776;2023-06-24T14:58:12;2.78;;;2.58;;
7919;SDS011;18778;47.610;9.776;2023-06-24T15:00:38;2.92;;;2.72;;
7919;SDS011;18778;47.610;9.776;2023-06-24T15:03:04;3.13;;;2.67;;
7919;SDS011;18778;47.610;9.776;2023-06-24T15:05:29;3.13;;;2.92;;
7919;SDS011;18778;47.610;9.776;2023-06-24T15:07:55;2.85;;;2.60;;
7919;SDS011;18778;47.610;9.776;2023-06-24T15:10:20;2.70;;;2.50;;
7919;SDS011;18778;47.610;9.776;2023-06-24T15:12:46;3.20;;;3.00;;
7919;SDS011;18778;47.610;9.776;2023-06-24T15:15:12;3.05;;;2.70;;
7919;SDS011;18778;47.610;9.776;2023-06-24T15:17:38;3.30;;;2.97;;
7919;SDS011;18778;47.610;9.776;2023-06-24T15:20:08;3.47;;;2.65;;
7919;SDS011;18778;47.610;9.776;2023-06-24T15:22:34;2.65;;;2.45;;
7919;SDS011;18778;47.610;9.776;2023-06-24T15:25:00;3.20;;;2.90;;
7919;SDS011;18778;47.610;9.776;2023-06-24T15:27:25;2.75;;;2.55;;
7919;SDS011;18778;47.610;9.776;2023-06-24T15:29:51;2.67;;;2.50;;
7919;SDS011;18778;47.610;9.776;2023-06-24T15:32:16;2.83;;;2.63;;